createdAt,value
2023-01-13T00:00:19.990Z,7.90
2023-01-13T00:01:27.833Z,8.23
2023-01-13T00:02:30.195Z,6.38
2023-01-13T00:03:33.332Z,6.15
2023-01-13T00:04:35.526Z,3.13
2023-01-13T00:05:39.176Z,1.90
2023-01-13T00:06:41.344Z,1.60
2023-01-13T00:07:44.648Z,1.30
2023-01-13T00:08:49.250Z,1.60
2023-01-13T00:09:52.379Z,1.30
2023-01-13T00:10:54.592Z,0.95
2023-01-13T00:11:57.703Z,1.50
2023-01-13T00:13:01.026Z,1.58
2023-01-13T00:14:03.265Z,1.77
2023-01-13T00:15:07.356Z,0.90
2023-01-13T00:16:12.435Z,0.80
2023-01-13T00:17:17.221Z,1.00
2023-01-13T00:18:19.432Z,0.70
2023-01-13T00:19:23.082Z,0.80
2023-01-13T00:20:25.551Z,0.93
2023-01-13T00:21:28.751Z,0.70
2023-01-13T00:22:33.302Z,0.80
2023-01-13T00:23:37.398Z,0.70
2023-01-13T00:24:39.514Z,0.60
2023-01-13T00:25:42.781Z,0.82
2023-01-13T00:26:45.059Z,0.70
2023-01-13T00:27:48.161Z,0.70
2023-01-13T00:28:51.128Z,0.80
2023-01-13T00:29:54.357Z,0.90
2023-01-13T00:30:58.463Z,0.75
2023-01-13T00:32:01.801Z,0.60
2023-01-13T00:33:05.440Z,0.93
2023-01-13T00:34:08.609Z,0.65
2023-01-13T00:35:11.999Z,0.60
2023-01-13T00:36:16.338Z,1.00
2023-01-13T00:37:19.733Z,0.60
2023-01-13T00:38:32.267Z,0.65
2023-01-13T00:39:35.888Z,0.70
2023-01-13T00:40:38.228Z,1.00
2023-01-13T00:41:58.869Z,0.70
2023-01-13T00:43:19.535Z,0.60
2023-01-13T00:44:23.818Z,0.60
2023-01-13T00:45:25.987Z,0.70
2023-01-13T00:46:29.330Z,0.68
2023-01-13T00:47:32.150Z,0.60
2023-01-13T00:48:37.914Z,1.05
2023-01-13T00:49:40.195Z,0.90
2023-01-13T00:50:43.580Z,0.70
2023-01-13T00:51:45.728Z,0.73
2023-01-13T00:52:49.188Z,0.70
2023-01-13T00:53:52.496Z,0.93
2023-01-13T00:54:56.008Z,0.57
2023-01-13T00:56:00.955Z,0.88
2023-01-13T00:57:05.429Z,0.80
2023-01-13T00:58:07.778Z,0.70
2023-01-13T00:59:13.313Z,0.70
2023-01-13T01:00:16.161Z,0.60
2023-01-13T01:01:22.012Z,0.80
2023-01-13T01:02:24.367Z,0.90
2023-01-13T01:03:27.747Z,0.85
2023-01-13T01:04:31.585Z,0.60
2023-01-13T01:05:35.426Z,0.80
2023-01-13T01:06:37.919Z,0.80
2023-01-13T01:07:41.139Z,0.63
2023-01-13T01:08:43.867Z,0.70
2023-01-13T01:09:46.939Z,0.60
2023-01-13T01:10:49.140Z,0.80
2023-01-13T01:11:52.361Z,0.73
2023-01-13T01:12:54.823Z,0.70
2023-01-13T01:14:00.562Z,0.80
2023-01-13T01:15:03.608Z,1.15
2023-01-13T01:16:08.989Z,0.70
2023-01-13T01:17:11.288Z,0.68
2023-01-13T01:18:14.823Z,0.60
2023-01-13T01:19:18.917Z,1.25
2023-01-13T01:20:23.734Z,0.63
2023-01-13T01:21:28.393Z,0.88
2023-01-13T01:22:32.543Z,0.90
2023-01-13T01:23:35.892Z,0.75
2023-01-13T01:24:39.006Z,0.93
2023-01-13T01:25:41.168Z,0.70
2023-01-13T01:26:44.825Z,0.80
2023-01-13T01:27:47.142Z,0.60
2023-01-13T01:28:50.997Z,0.60
2023-01-13T01:29:53.363Z,0.80
2023-01-13T01:30:58.610Z,0.70
2023-01-13T01:32:00.680Z,0.50
2023-01-13T01:33:05.326Z,0.60
2023-01-13T01:34:07.515Z,0.65
2023-01-13T01:35:11.036Z,1.00
2023-01-13T01:36:16.654Z,0.70
2023-01-13T01:37:20.075Z,1.17
2023-01-13T01:38:23.500Z,0.90
2023-01-13T01:39:29.158Z,0.60
2023-01-13T01:40:31.304Z,0.60
2023-01-13T01:41:36.352Z,0.60
2023-01-13T01:42:57.394Z,0.60
2023-01-13T01:44:04.567Z,0.70
2023-01-13T01:45:17.738Z,0.70
2023-01-13T01:46:20.984Z,0.73
2023-01-13T01:47:24.986Z,0.68
2023-01-13T01:48:29.961Z,0.85
2023-01-13T01:49:34.916Z,0.65
2023-01-13T01:50:39.287Z,0.60
2023-01-13T01:51:48.793Z,0.52
2023-01-13T01:52:55.585Z,0.50
2023-01-13T01:54:00.296Z,0.60
2023-01-13T01:55:07.553Z,0.50
2023-01-13T01:56:10.904Z,0.70
2023-01-13T01:57:19.533Z,0.70
2023-01-13T01:58:26.039Z,0.60
2023-01-13T01:59:33.860Z,1.05
2023-01-13T02:00:36.474Z,0.63
2023-01-13T02:01:40.563Z,0.60
2023-01-13T02:02:46.286Z,0.60
2023-01-13T02:03:56.949Z,0.80
2023-01-13T02:05:00.193Z,0.60
2023-01-13T02:06:03.399Z,0.57
2023-01-13T02:07:08.154Z,0.60
2023-01-13T02:08:14.400Z,0.60
2023-01-13T02:09:17.327Z,0.70
2023-01-13T02:10:23.488Z,1.00
2023-01-13T02:11:48.971Z,0.60
2023-01-13T02:12:52.965Z,0.70
2023-01-13T02:13:56.162Z,0.65
2023-01-13T02:15:01.593Z,0.60
2023-01-13T02:16:11.938Z,0.60
2023-01-13T02:17:26.398Z,0.60
2023-01-13T02:18:42.188Z,0.60
2023-01-13T02:20:31.438Z,0.60
2023-01-13T02:22:09.668Z,1.10
2023-01-13T02:24:01.383Z,0.50
2023-01-13T02:25:44.405Z,0.52
2023-01-13T02:27:29.649Z,0.50
2023-01-13T02:29:07.703Z,0.70
2023-01-13T02:30:36.789Z,0.60
2023-01-13T02:31:43.357Z,0.52
2023-01-13T02:32:53.141Z,0.55
2023-01-13T02:34:05.729Z,0.70
2023-01-13T02:35:15.675Z,0.50
2023-01-13T02:36:26.932Z,0.55
2023-01-13T02:37:31.772Z,0.50
2023-01-13T02:38:40.977Z,0.60
2023-01-13T02:39:50.728Z,0.65
2023-01-13T02:40:59.523Z,0.70
2023-01-13T02:42:26.139Z,0.70
2023-01-13T02:43:51.878Z,0.60
2023-01-13T02:44:59.280Z,0.50
2023-01-13T02:46:09.983Z,0.60
2023-01-13T02:47:19.241Z,0.80
2023-01-13T02:48:24.150Z,0.50
2023-01-13T02:49:35.368Z,0.80
2023-01-13T02:50:43.043Z,0.50
2023-01-13T02:51:48.828Z,0.60
2023-01-13T02:52:55.115Z,0.60
2023-01-13T02:54:02.280Z,0.77
2023-01-13T02:55:08.168Z,0.70
2023-01-13T02:56:13.788Z,0.60
2023-01-13T02:57:17.361Z,0.50
2023-01-13T02:58:25.613Z,0.50
2023-01-13T02:59:30.417Z,0.68
2023-01-13T03:00:34.682Z,0.55
2023-01-13T03:01:38.788Z,0.70
2023-01-13T03:02:42.308Z,0.60
2023-01-13T03:03:44.614Z,0.68
2023-01-13T03:04:54.581Z,0.88
2023-01-13T03:06:09.437Z,0.85
2023-01-13T03:07:17.527Z,0.70
2023-01-13T03:08:31.627Z,0.63
2023-01-13T03:09:39.678Z,0.65
2023-01-13T03:10:54.950Z,0.60
2023-01-13T03:12:07.391Z,0.60
2023-01-13T03:13:25.680Z,0.70
2023-01-13T03:14:40.900Z,1.05
2023-01-13T03:15:53.250Z,0.60
2023-01-13T03:17:18.641Z,0.70
2023-01-13T03:18:32.400Z,0.80
2023-01-13T03:19:44.937Z,0.60
2023-01-13T03:20:55.126Z,0.70
2023-01-13T03:22:02.728Z,0.90
2023-01-13T03:23:11.374Z,0.63
2023-01-13T03:24:21.190Z,0.60
2023-01-13T03:25:26.193Z,0.50
2023-01-13T03:26:34.838Z,0.80
2023-01-13T03:27:47.184Z,0.60
2023-01-13T03:28:54.981Z,0.93
2023-01-13T03:30:00.931Z,0.70
2023-01-13T03:31:11.264Z,0.70
2023-01-13T03:32:19.937Z,0.50
2023-01-13T03:33:27.550Z,0.65
2023-01-13T03:34:34.517Z,0.70
2023-01-13T03:35:41.633Z,0.75
2023-01-13T03:36:46.303Z,0.60
2023-01-13T03:37:54.581Z,0.80
2023-01-13T03:38:59.735Z,0.70
2023-01-13T03:40:07.116Z,0.80
2023-01-13T03:41:13.414Z,0.70
2023-01-13T03:42:20.661Z,0.60
2023-01-13T03:43:47.281Z,0.70
2023-01-13T03:44:55.361Z,0.65
2023-01-13T03:46:02.578Z,0.70
2023-01-13T03:47:13.942Z,0.60
2023-01-13T03:48:21.235Z,0.60
2023-01-13T03:49:29.538Z,0.70
2023-01-13T03:50:37.015Z,0.70
2023-01-13T03:51:44.033Z,0.60
2023-01-13T03:52:50.881Z,0.60
2023-01-13T03:53:59.288Z,0.60
2023-01-13T03:55:06.428Z,0.90
2023-01-13T03:56:15.726Z,0.70
2023-01-13T03:57:24.403Z,0.70
2023-01-13T03:58:31.254Z,0.60
2023-01-13T03:59:39.663Z,0.65
2023-01-13T04:00:54.302Z,0.60
2023-01-13T04:02:02.229Z,0.60
2023-01-13T04:03:10.827Z,0.70
2023-01-13T04:04:19.726Z,0.70
2023-01-13T04:05:23.732Z,0.60
2023-01-13T04:06:35.281Z,0.57
2023-01-13T04:07:50.801Z,0.60
2023-01-13T04:09:01.775Z,0.70
2023-01-13T04:10:08.610Z,1.25
2023-01-13T04:11:15.977Z,0.82
2023-01-13T04:12:26.378Z,1.10
2023-01-13T04:13:32.982Z,0.60
2023-01-13T04:14:36.955Z,0.70
2023-01-13T04:15:42.236Z,0.50
2023-01-13T04:16:44.490Z,0.70
2023-01-13T04:17:47.849Z,0.90
2023-01-13T04:18:50.923Z,0.60
2023-01-13T04:19:56.522Z,0.60
2023-01-13T04:21:00.219Z,0.60
2023-01-13T04:22:04.143Z,0.73
2023-01-13T04:23:07.023Z,0.60
2023-01-13T04:24:10.845Z,1.02
2023-01-13T04:25:12.974Z,1.10
2023-01-13T04:26:16.723Z,0.85
2023-01-13T04:27:19.073Z,0.90
2023-01-13T04:28:22.950Z,1.13
2023-01-13T04:29:25.114Z,0.90
2023-01-13T04:30:28.976Z,1.00
2023-01-13T04:31:31.510Z,1.10
2023-01-13T04:32:34.936Z,1.00
2023-01-13T04:33:37.127Z,0.75
2023-01-13T04:34:40.361Z,0.70
2023-01-13T04:35:45.551Z,0.80
2023-01-13T04:36:48.998Z,0.68
2023-01-13T04:37:51.491Z,0.80
2023-01-13T04:38:55.747Z,0.70
2023-01-13T04:39:58.642Z,0.50
2023-01-13T04:41:01.881Z,0.93
2023-01-13T04:42:04.283Z,0.60
2023-01-13T04:43:08.285Z,0.60
2023-01-13T04:44:10.578Z,0.50
2023-01-13T04:45:14.215Z,0.60
2023-01-13T04:46:16.659Z,0.60
2023-01-13T04:47:20.002Z,0.60
2023-01-13T04:48:23.313Z,0.60
2023-01-13T04:49:25.479Z,0.90
2023-01-13T04:50:30.143Z,0.80
2023-01-13T04:51:34.123Z,0.50
2023-01-13T04:52:37.524Z,0.80
2023-01-13T04:53:40.751Z,0.70
2023-01-13T04:54:43.005Z,0.60
2023-01-13T04:55:48.156Z,0.70
2023-01-13T04:56:50.409Z,0.73
2023-01-13T04:57:53.710Z,0.60
2023-01-13T04:58:56.056Z,0.50
2023-01-13T04:59:59.591Z,0.70
2023-01-13T05:01:01.766Z,0.55
2023-01-13T05:02:05.520Z,0.65
2023-01-13T05:03:09.844Z,0.50
2023-01-13T05:04:15.613Z,0.50
2023-01-13T05:05:18.191Z,0.50
2023-01-13T05:06:21.800Z,0.60
2023-01-13T05:07:25.477Z,0.60
2023-01-13T05:08:28.930Z,0.60
2023-01-13T05:09:31.097Z,0.50
2023-01-13T05:10:34.332Z,0.63
2023-01-13T05:11:54.980Z,0.70
2023-01-13T05:13:15.556Z,0.70
2023-01-13T05:14:36.354Z,0.70
2023-01-13T05:15:59.287Z,0.80
2023-01-13T05:17:03.804Z,0.80
2023-01-13T05:18:06.298Z,0.60
2023-01-13T05:19:09.727Z,0.55
2023-01-13T05:20:12.595Z,0.60
2023-01-13T05:21:29.740Z,0.60
2023-01-13T05:22:52.100Z,0.60
2023-01-13T05:24:12.840Z,0.60
2023-01-13T05:25:28.431Z,0.70
2023-01-13T05:26:36.463Z,0.55
2023-01-13T05:27:40.342Z,0.50
2023-01-13T05:28:44.128Z,0.60
2023-01-13T05:29:46.423Z,0.60
2023-01-13T05:30:51.212Z,0.60
2023-01-13T05:31:53.765Z,0.60
2023-01-13T05:32:57.632Z,0.60
2023-01-13T05:33:59.977Z,0.60
2023-01-13T05:35:03.847Z,0.60
2023-01-13T05:36:06.827Z,0.93
2023-01-13T05:37:11.276Z,0.60
2023-01-13T05:38:15.879Z,0.60
2023-01-13T05:39:19.453Z,0.90
2023-01-13T05:40:37.286Z,0.75
2023-01-13T05:41:57.786Z,0.60
2023-01-13T05:43:20.809Z,0.70
2023-01-13T05:44:37.969Z,0.65
2023-01-13T05:45:40.469Z,0.50
2023-01-13T05:46:44.350Z,0.70
2023-01-13T05:47:46.830Z,0.70
2023-01-13T05:48:50.966Z,0.60
2023-01-13T05:49:53.352Z,0.50
2023-01-13T05:50:56.971Z,0.70
2023-01-13T05:52:00.368Z,0.60
2023-01-13T05:53:02.893Z,0.60
2023-01-13T05:54:08.206Z,0.68
2023-01-13T05:55:11.143Z,0.85
2023-01-13T05:56:15.113Z,0.57
2023-01-13T05:57:17.987Z,0.57
2023-01-13T05:58:23.265Z,0.70
2023-01-13T05:59:25.536Z,0.70
2023-01-13T06:00:29.097Z,0.50
2023-01-13T06:01:32.690Z,0.68
2023-01-13T06:02:35.018Z,0.75
2023-01-13T06:03:39.128Z,0.50
2023-01-13T06:04:41.373Z,0.60
2023-01-13T06:05:44.893Z,0.73
2023-01-13T06:06:48.589Z,0.90
2023-01-13T06:07:52.154Z,0.70
2023-01-13T06:08:55.805Z,0.73
2023-01-13T06:09:59.602Z,0.82
2023-01-13T06:11:03.246Z,0.82
2023-01-13T06:12:06.439Z,0.73
2023-01-13T06:13:09.805Z,0.60
2023-01-13T06:14:11.943Z,0.60
2023-01-13T06:15:15.527Z,0.60
2023-01-13T06:16:17.925Z,0.50
2023-01-13T06:17:21.300Z,0.75
2023-01-13T06:18:24.616Z,0.60
2023-01-13T06:19:26.777Z,0.80
2023-01-13T06:20:30.643Z,0.50
2023-01-13T06:21:33.438Z,0.60
2023-01-13T06:22:40.023Z,0.77
2023-01-13T06:23:43.402Z,0.73
2023-01-13T06:24:46.399Z,0.70
2023-01-13T06:25:57.954Z,0.70
2023-01-13T06:27:00.279Z,0.60
2023-01-13T06:28:04.396Z,0.50
2023-01-13T06:29:08.333Z,0.70
2023-01-13T06:30:12.847Z,0.63
2023-01-13T06:31:16.394Z,0.60
2023-01-13T06:32:21.969Z,0.73
2023-01-13T06:33:30.086Z,0.60
2023-01-13T06:34:33.607Z,0.60
2023-01-13T06:35:40.064Z,0.50
2023-01-13T06:36:48.813Z,0.65
2023-01-13T06:37:55.399Z,0.77
2023-01-13T06:39:01.557Z,0.68
2023-01-13T06:40:12.183Z,0.70
2023-01-13T06:41:17.010Z,0.85
2023-01-13T06:42:37.816Z,0.80
2023-01-13T06:43:41.822Z,0.60
2023-01-13T06:44:44.632Z,0.50
2023-01-13T06:45:51.738Z,0.60
2023-01-13T06:46:57.770Z,0.63
2023-01-13T06:48:00.820Z,0.65
2023-01-13T06:49:04.282Z,0.70
2023-01-13T06:50:08.286Z,0.70
2023-01-13T06:51:12.012Z,0.60
2023-01-13T06:52:14.597Z,0.60
2023-01-13T06:53:18.394Z,1.00
2023-01-13T06:54:20.713Z,0.70
2023-01-13T06:55:24.168Z,0.70
2023-01-13T06:56:31.662Z,0.60
2023-01-13T06:57:33.928Z,0.65
2023-01-13T06:58:37.438Z,0.75
2023-01-13T06:59:39.907Z,0.75
2023-01-13T07:00:43.369Z,0.50
2023-01-13T07:01:45.846Z,1.00
2023-01-13T07:02:49.725Z,0.60
2023-01-13T07:03:53.504Z,0.60
2023-01-13T07:04:55.941Z,0.80
2023-01-13T07:07:18.439Z,0.60
2023-01-13T07:08:22.288Z,0.65
2023-01-13T07:09:24.553Z,0.75
2023-01-13T07:10:28.023Z,0.70
2023-01-13T07:11:31.801Z,0.60
2023-01-13T07:12:55.161Z,0.80
2023-01-13T07:14:12.283Z,1.33
2023-01-13T07:15:19.730Z,0.75
2023-01-13T07:16:24.461Z,0.60
2023-01-13T07:17:27.086Z,0.70
2023-01-13T07:18:32.122Z,0.80
2023-01-13T07:19:34.557Z,0.80
2023-01-13T07:20:37.869Z,0.68
2023-01-13T07:21:40.518Z,0.70
2023-01-13T07:22:44.257Z,0.70
2023-01-13T07:23:47.888Z,1.23
2023-01-13T07:24:51.411Z,0.80
2023-01-13T07:25:56.241Z,0.70
2023-01-13T07:27:01.186Z,1.02
2023-01-13T07:28:03.673Z,0.70
2023-01-13T07:29:07.176Z,0.80
2023-01-13T07:30:10.748Z,0.60
2023-01-13T07:31:19.087Z,0.70
2023-01-13T07:32:22.930Z,0.70
2023-01-13T07:33:26.869Z,0.73
2023-01-13T07:34:30.256Z,0.80
2023-01-13T07:35:32.661Z,0.85
2023-01-13T07:36:36.442Z,0.80
2023-01-13T07:37:39.719Z,0.80
2023-01-13T07:38:44.934Z,0.73
2023-01-13T07:39:47.562Z,0.85
2023-01-13T07:40:52.115Z,0.73
2023-01-13T07:42:12.927Z,1.00
2023-01-13T07:43:34.925Z,0.80
2023-01-13T07:44:37.259Z,0.70
2023-01-13T07:45:40.818Z,1.00
2023-01-13T07:46:44.184Z,1.75
2023-01-13T07:47:46.422Z,0.90
2023-01-13T07:48:50.189Z,1.15
2023-01-13T07:49:52.402Z,1.25
2023-01-13T07:50:55.926Z,2.00
2023-01-13T07:51:59.148Z,1.10
2023-01-13T07:53:01.304Z,1.50
2023-01-13T07:54:05.191Z,1.25
2023-01-13T07:55:08.173Z,1.92
2023-01-13T07:56:11.822Z,1.20
2023-01-13T07:57:15.244Z,1.52
2023-01-13T07:58:20.041Z,1.00
2023-01-13T07:59:22.416Z,1.00
2023-01-13T08:00:26.103Z,0.82
2023-01-13T08:01:29.143Z,1.08
2023-01-13T08:02:32.960Z,0.70
2023-01-13T08:03:36.240Z,0.70
2023-01-13T08:04:41.011Z,0.77
2023-01-13T08:05:45.547Z,0.80
2023-01-13T08:06:50.317Z,1.10
2023-01-13T08:07:53.436Z,0.77
2023-01-13T08:08:55.776Z,0.95
2023-01-13T08:09:59.297Z,0.75
2023-01-13T08:11:02.855Z,0.80
2023-01-13T08:12:23.881Z,1.10
2023-01-13T08:13:28.947Z,1.00
2023-01-13T08:14:32.126Z,0.90
2023-01-13T08:15:34.955Z,1.00
2023-01-13T08:16:38.579Z,0.90
2023-01-13T08:17:41.270Z,0.90
2023-01-13T08:18:44.963Z,0.80
2023-01-13T08:19:47.891Z,0.75
2023-01-13T08:20:52.709Z,0.80
2023-01-13T08:21:56.323Z,0.70
2023-01-13T08:22:59.277Z,0.60
2023-01-13T08:24:02.707Z,0.60
2023-01-13T08:25:05.746Z,0.93
2023-01-13T08:26:11.596Z,0.77
2023-01-13T08:27:14.190Z,0.80
2023-01-13T08:28:18.052Z,0.70
2023-01-13T08:29:22.788Z,0.80
2023-01-13T08:30:26.515Z,1.00
2023-01-13T08:31:29.986Z,1.00
2023-01-13T08:32:32.527Z,0.77
2023-01-13T08:33:36.068Z,0.85
2023-01-13T08:34:38.447Z,0.80
2023-01-13T08:35:44.399Z,1.30
2023-01-13T08:36:49.238Z,0.90
2023-01-13T08:37:53.209Z,0.90
2023-01-13T08:38:56.578Z,0.90
2023-01-13T08:39:58.857Z,0.93
2023-01-13T08:41:02.527Z,1.23
2023-01-13T08:42:05.462Z,1.10
2023-01-13T08:43:08.549Z,0.90
2023-01-13T08:44:10.689Z,0.93
2023-01-13T08:45:15.918Z,0.90
2023-01-13T08:48:16.165Z,0.70
2023-01-13T08:49:21.702Z,0.93
2023-01-13T08:50:26.907Z,0.98
2023-01-13T08:51:30.227Z,0.60
2023-01-13T08:52:34.490Z,0.98
2023-01-13T08:53:38.356Z,0.80
2023-01-13T08:54:55.764Z,0.82
2023-01-13T08:56:13.570Z,0.70
2023-01-13T08:57:22.251Z,0.70
2023-01-13T08:58:35.924Z,0.70
2023-01-13T08:59:48.882Z,0.77
2023-01-13T09:00:53.245Z,0.60
2023-01-13T09:01:57.577Z,0.70
2023-01-13T09:03:01.654Z,0.80
2023-01-13T09:04:04.372Z,0.70
2023-01-13T09:05:09.202Z,0.63
2023-01-13T09:06:11.869Z,0.60
2023-01-13T09:07:23.180Z,0.60
2023-01-13T09:08:27.170Z,0.70
2023-01-13T09:09:32.432Z,0.65
2023-01-13T09:10:37.949Z,0.80
2023-01-13T09:12:10.718Z,0.98
2023-01-13T09:15:06.634Z,0.60
2023-01-13T09:16:12.274Z,0.60
2023-01-13T09:17:15.597Z,0.60
2023-01-13T09:18:22.085Z,0.65
2023-01-13T09:19:31.123Z,0.60
2023-01-13T09:32:38.379Z,0.60
2023-01-13T09:33:59.823Z,0.60
2023-01-13T09:35:03.537Z,0.70
2023-01-13T09:36:08.574Z,0.70
2023-01-13T09:37:11.404Z,0.60
2023-01-13T09:38:19.687Z,0.80
2023-01-13T09:39:26.524Z,0.70
2023-01-13T09:40:33.087Z,0.70
2023-01-13T09:42:03.432Z,1.02
2023-01-13T09:43:36.749Z,0.60
2023-01-13T09:44:50.832Z,0.95
2023-01-13T09:46:01.580Z,0.70
2023-01-13T09:47:14.120Z,0.60
2023-01-13T09:48:24.784Z,0.80
2023-01-13T09:49:33.794Z,0.80
2023-01-13T09:50:49.695Z,0.70
2023-01-13T09:51:56.765Z,0.60
2023-01-13T09:53:00.775Z,0.70
2023-01-13T09:54:13.074Z,0.60
2023-01-13T09:55:18.805Z,0.60
2023-01-13T09:56:24.796Z,0.60
2023-01-13T09:57:31.702Z,0.80
2023-01-13T09:58:41.108Z,0.70
2023-01-13T09:59:44.059Z,0.70
2023-01-13T10:00:55.004Z,0.60
2023-01-13T10:02:05.865Z,0.70
2023-01-13T10:03:23.068Z,0.70
2023-01-13T10:04:27.079Z,0.60
2023-01-13T10:05:39.648Z,0.60
2023-01-13T10:07:04.617Z,0.73
2023-01-13T10:08:18.633Z,0.60
2023-01-13T10:09:45.906Z,0.73
2023-01-13T10:10:50.278Z,0.70
2023-01-13T10:12:14.931Z,0.70
2023-01-13T10:13:27.096Z,0.63
2023-01-13T10:14:41.382Z,0.80
2023-01-13T10:15:53.869Z,0.80
2023-01-13T10:17:06.147Z,1.08
2023-01-13T10:18:17.358Z,0.65
2023-01-13T10:19:29.540Z,0.70
2023-01-13T10:20:46.958Z,0.73
2023-01-13T10:22:21.611Z,0.55
2023-01-13T10:23:43.998Z,0.60
2023-01-13T10:25:18.458Z,0.55
2023-01-13T10:26:41.183Z,0.50
2023-01-13T10:27:49.383Z,0.63
2023-01-13T10:28:54.486Z,0.50
2023-01-13T10:29:58.488Z,0.57
2023-01-13T10:31:02.863Z,0.65
2023-01-13T10:32:10.467Z,0.60
2023-01-13T10:33:17.610Z,0.60
2023-01-13T10:34:23.936Z,0.60
2023-01-13T10:35:49.402Z,0.63
2023-01-13T10:37:01.918Z,0.70
2023-01-13T10:38:04.552Z,0.60
2023-01-13T10:39:17.288Z,0.60
2023-01-13T10:40:21.095Z,0.60
2023-01-13T10:41:29.191Z,0.75
2023-01-13T10:42:34.040Z,0.60
2023-01-13T10:43:39.926Z,0.60
2023-01-13T10:44:53.700Z,0.80
2023-01-13T10:45:59.873Z,0.60
2023-01-13T10:47:03.417Z,0.60
2023-01-13T10:48:15.029Z,0.70
2023-01-13T10:49:34.022Z,0.70
2023-01-13T10:50:42.191Z,1.00
2023-01-13T10:51:46.804Z,0.70
2023-01-13T10:53:39.335Z,0.70
2023-01-13T10:54:53.452Z,0.60
2023-01-13T10:56:01.963Z,0.57
2023-01-13T11:01:12.394Z,0.73
2023-01-13T11:02:31.843Z,0.75
2023-01-13T11:03:42.991Z,0.75
2023-01-13T11:05:06.857Z,0.80
2023-01-13T11:06:20.885Z,0.70
2023-01-13T11:07:31.670Z,0.50
2023-01-13T11:16:33.585Z,0.50
2023-01-13T11:17:46.601Z,0.80
2023-01-13T11:19:02.574Z,0.70
2023-01-13T11:20:20.888Z,1.40
2023-01-13T11:21:28.459Z,0.50
2023-01-13T11:22:36.679Z,0.50
2023-01-13T11:23:47.298Z,0.50
2023-01-13T11:24:55.702Z,0.60
2023-01-13T11:26:05.091Z,0.60
2023-01-13T11:27:16.400Z,0.70
2023-01-13T11:28:35.392Z,0.60
2023-01-13T11:29:45.714Z,0.70
2023-01-13T11:30:54.136Z,0.60
2023-01-13T11:32:10.308Z,0.60
2023-01-13T11:33:40.119Z,0.60
2023-01-13T11:34:47.178Z,0.43
2023-01-13T11:36:03.677Z,0.65
2023-01-13T11:37:16.479Z,0.60
2023-01-13T11:38:34.025Z,0.60
2023-01-13T11:39:47.807Z,0.60
2023-01-13T11:40:52.848Z,0.63
2023-01-13T11:42:18.490Z,0.60
2023-01-13T11:43:31.120Z,0.75
2023-01-13T11:44:40.943Z,0.50
2023-01-13T11:45:51.999Z,0.50
2023-01-13T11:46:56.247Z,0.70
2023-01-13T11:48:02.789Z,0.60
2023-01-13T11:49:07.458Z,0.50
2023-01-13T11:50:19.420Z,0.57
2023-01-13T11:51:36.049Z,0.60
2023-01-13T11:52:59.785Z,0.55
2023-01-13T11:54:17.180Z,0.50
2023-01-13T11:55:31.148Z,0.65
2023-01-13T11:56:56.360Z,0.50
2023-01-13T11:58:49.606Z,0.52
2023-01-13T12:00:16.675Z,0.50
2023-01-13T12:01:51.783Z,0.60
2023-01-13T12:03:20.723Z,0.43
2023-01-13T12:04:31.927Z,0.70
2023-01-13T12:05:41.319Z,0.50
2023-01-13T12:06:53.858Z,0.68
2023-01-13T12:08:10.055Z,0.60
2023-01-13T12:09:44.972Z,0.70
2023-01-13T12:11:00.954Z,0.70
2023-01-13T12:12:28.209Z,0.70
2023-01-13T12:13:44.112Z,0.70
2023-01-13T12:15:12.231Z,0.70
2023-01-13T12:16:26.129Z,0.95
2023-01-13T12:17:39.346Z,0.80
2023-01-13T12:19:24.681Z,0.70
2023-01-13T12:20:41.766Z,0.50
2023-01-13T12:22:12.002Z,0.50
2023-01-13T12:23:27.265Z,0.57
2023-01-13T12:24:42.659Z,0.60
2023-01-13T12:25:58.310Z,0.68
2023-01-13T12:27:23.325Z,0.70
2023-01-13T12:28:34.227Z,0.68
2023-01-13T12:29:44.409Z,0.70
2023-01-13T12:31:02.391Z,0.60
2023-01-13T12:32:15.158Z,0.73
2023-01-13T12:33:26.603Z,0.65
2023-01-13T12:34:55.473Z,0.60
2023-01-13T12:36:04.687Z,0.65
2023-01-13T12:37:25.793Z,0.90
2023-01-13T12:38:39.089Z,0.60
2023-01-13T12:39:51.409Z,1.02
2023-01-13T12:41:08.206Z,0.80
2023-01-13T12:42:36.764Z,0.60
2023-01-13T12:44:04.167Z,0.70
2023-01-13T12:45:32.847Z,0.70
2023-01-13T12:47:17.819Z,0.50
2023-01-13T12:52:47.771Z,0.90
2023-01-13T12:53:51.184Z,0.50
2023-01-13T12:55:19.491Z,0.80
2023-01-13T12:56:28.454Z,0.60
2023-01-13T12:57:38.460Z,0.55
2023-01-13T12:58:42.674Z,0.70
2023-01-13T12:59:49.214Z,0.60
2023-01-13T13:01:01.817Z,0.70
2023-01-13T13:02:34.795Z,0.70
2023-01-13T13:03:38.642Z,0.60
2023-01-13T13:04:48.406Z,0.68
2023-01-13T13:06:22.523Z,0.95
2023-01-13T13:07:51.124Z,0.57
2023-01-13T13:10:58.310Z,1.02
2023-01-13T13:14:14.983Z,0.60
2023-01-13T13:15:24.065Z,0.85
2023-01-13T13:16:45.743Z,0.70
2023-01-13T13:19:46.673Z,0.85
2023-01-13T13:21:06.471Z,0.65
2023-01-13T13:22:44.833Z,0.68
2023-01-13T13:24:06.087Z,0.70
2023-01-13T13:25:22.531Z,0.90
2023-01-13T13:26:42.890Z,1.00
2023-01-13T13:27:51.496Z,0.70
2023-01-13T13:29:17.865Z,0.73
2023-01-13T13:30:28.019Z,0.75
2023-01-13T13:31:47.043Z,0.60
2023-01-13T13:33:07.309Z,0.70
2023-01-13T13:34:24.304Z,0.70
2023-01-13T13:35:43.550Z,0.60
2023-01-13T13:37:12.052Z,0.80
2023-01-13T13:38:51.735Z,0.60
2023-01-13T13:41:50.269Z,0.70
2023-01-13T13:43:17.053Z,0.70
2023-01-13T13:44:41.750Z,0.63
2023-01-13T13:46:13.165Z,1.15
2023-01-13T13:47:17.406Z,0.80
2023-01-13T13:48:23.058Z,0.80
2023-01-13T13:49:42.849Z,0.75
2023-01-13T13:50:57.628Z,0.60
2023-01-13T13:52:12.206Z,0.60
2023-01-13T13:53:24.136Z,0.68
2023-01-13T13:54:27.786Z,0.52
2023-01-13T13:55:32.659Z,0.80
2023-01-13T13:56:44.837Z,0.63
2023-01-13T13:57:51.598Z,0.70
2023-01-13T13:58:58.796Z,0.70
2023-01-13T14:00:08.616Z,0.60
2023-01-13T14:01:25.222Z,0.50
2023-01-13T14:02:35.317Z,0.70
2023-01-13T14:03:45.188Z,0.82
2023-01-13T14:04:56.663Z,0.80
2023-01-13T14:06:07.440Z,0.60
2023-01-13T14:07:21.578Z,0.77
2023-01-13T14:08:32.826Z,0.80
2023-01-13T14:09:44.587Z,0.50
2023-01-13T14:10:50.955Z,0.60
2023-01-13T14:12:01.277Z,0.60
2023-01-13T14:13:16.340Z,0.60
2023-01-13T14:14:21.505Z,0.65
2023-01-13T14:15:28.419Z,0.80
2023-01-13T14:16:36.147Z,0.60
2023-01-13T14:17:39.565Z,0.70
2023-01-13T14:18:47.920Z,0.55
2023-01-13T14:19:56.867Z,0.57
2023-01-13T14:21:03.921Z,0.57
2023-01-13T14:22:16.586Z,0.70
2023-01-13T14:23:27.629Z,0.80
2023-01-13T14:24:32.653Z,0.50
2023-01-13T14:25:42.797Z,0.50
2023-01-13T14:26:51.648Z,0.60
2023-01-13T14:27:56.602Z,0.63
2023-01-13T14:29:01.756Z,0.80
2023-01-13T14:30:21.341Z,0.60
2023-01-13T14:31:26.496Z,0.60
2023-01-13T14:32:38.352Z,1.40
2023-01-13T14:33:47.576Z,0.70
2023-01-13T14:36:40.478Z,1.08
2023-01-13T14:37:50.625Z,1.00
2023-01-13T14:42:16.322Z,0.70
2023-01-13T14:43:25.294Z,0.80
2023-01-13T14:44:34.718Z,1.00
2023-01-13T14:45:38.491Z,0.80
2023-01-13T14:46:47.776Z,0.65
2023-01-13T14:47:54.743Z,0.60
2023-01-13T14:49:04.203Z,0.70
2023-01-13T14:50:18.829Z,1.25
2023-01-13T14:51:25.434Z,0.70
2023-01-13T14:52:31.006Z,0.60
2023-01-13T14:53:43.682Z,1.20
2023-01-13T14:54:49.993Z,1.40
2023-01-13T14:55:53.297Z,1.10
2023-01-13T14:57:12.475Z,1.15
2023-01-13T14:58:26.821Z,0.70
2023-01-13T14:59:34.701Z,1.13
2023-01-13T15:00:41.873Z,0.88
2023-01-13T15:01:44.517Z,0.70
2023-01-13T15:02:50.235Z,0.80
2023-01-13T15:03:52.751Z,0.80
2023-01-13T15:04:59.103Z,1.20
2023-01-13T15:06:02.721Z,0.60
2023-01-13T15:07:05.158Z,1.00
2023-01-13T15:08:26.893Z,0.80
2023-01-13T15:09:36.172Z,1.05
2023-01-13T15:10:47.049Z,1.20
2023-01-13T15:11:50.553Z,1.10
2023-01-13T15:12:54.799Z,1.00
2023-01-13T15:14:02.407Z,1.08
2023-01-13T15:15:07.972Z,1.00
2023-01-13T15:16:21.794Z,1.05
2023-01-13T15:17:25.355Z,0.93
2023-01-13T15:18:28.865Z,0.80
2023-01-13T15:19:32.348Z,0.75
2023-01-13T15:20:35.674Z,0.80
2023-01-13T15:21:39.562Z,1.17
2023-01-13T15:22:42.439Z,0.80
2023-01-13T15:23:47.354Z,0.80
2023-01-13T15:24:50.285Z,1.00
2023-01-13T15:25:53.891Z,0.77
2023-01-13T15:26:57.851Z,0.80
2023-01-13T15:28:00.473Z,0.90
2023-01-13T15:29:06.487Z,0.80
2023-01-13T15:30:14.892Z,0.80
2023-01-13T15:31:18.587Z,0.90
2023-01-13T15:32:23.459Z,0.95
2023-01-13T15:33:25.840Z,0.90
2023-01-13T15:34:29.661Z,1.25
2023-01-13T15:35:32.460Z,1.00
2023-01-13T15:36:37.386Z,0.70
2023-01-13T15:37:39.852Z,0.90
2023-01-13T15:38:43.498Z,0.93
2023-01-13T15:39:47.870Z,0.80
2023-01-13T15:40:51.784Z,0.80
2023-01-13T15:42:12.933Z,0.85
2023-01-13T15:43:36.036Z,0.80
2023-01-13T15:44:58.148Z,0.90
2023-01-13T15:46:33.362Z,0.80
2023-01-13T15:47:38.171Z,0.80
2023-01-13T15:48:40.675Z,1.13
2023-01-13T15:49:46.309Z,0.90
2023-01-13T15:50:48.656Z,0.80
2023-01-13T15:51:52.618Z,0.80
2023-01-13T15:52:56.310Z,0.70
2023-01-13T15:54:02.896Z,0.95
2023-01-13T15:55:09.798Z,1.00
2023-01-13T15:56:23.695Z,0.80
2023-01-13T15:57:29.456Z,0.95
2023-01-13T15:58:31.990Z,1.10
2023-01-13T15:59:36.924Z,1.05
2023-01-13T16:00:41.980Z,1.42